Dubuque, IA

10:11 AM CDT on May 23, 2015 (GMT -0500)
Eagle Valley | | Change Station
CLOSE
Current Station
Personal Weather Station
Location: Dubuque, IA
Elevation: 837 ft
Nearby Weather Stations

Elev 837 ft 42.54 °N, 90.66 °W | Updated 35 seconds ago

Clear
Clear
68.3 °F
Feels Like 68.3 °F
N
2.0
Wind Variable Wind from NNE
Gusts 4.0 mph

Today
High -- | Low -- °F
--% Chance of Precip.
Yesterday
High -- | Low -- °F
Precip. -- in
5:33 AM 8:25 PM
Waxing Crescent, 30% visible
Pressure 30.29 in
Visibility 10.0 miles
Clouds Few 12000 ft
Dew Point 48 °F
Humidity 48%
Rainfall 0.00 in
Snow Depth Not available.
UV 6 out of 12
Pollen 7.30 out of 12
Air Quality Not available.
Flu Activity Sporadic
METAR KDBQ 231453Z 16007KT 10SM FEW120 18/08 A3030 RMK AO2 SLP257 T01830083 58000

More Conditions Fewer Conditions

Pressure 30.29 in
Visibility 10.0 miles
Clouds Few 12000 ft
Dew Point 48 °F
Humidity 48%
Rainfall 0.00 in
Snow Depth Not available.
UV 6 out of 12
Pollen 7.30 out of 12
Air Quality Not available.
Flu Activity Sporadic
METAR KDBQ 231453Z 16007KT 10SM FEW120 18/08 A3030 RMK AO2 SLP257 T01830083 58000

More Conditions Fewer Conditions

10-Day Weather Forecast

Almanac

Astronomy

May. 23, 2015 Rise Set
Actual Time
Civil Twilight
Nautical Twilight
Astronomical Twilight
Moon
Length of Visible Light
Length of Day
Tomorrow will be .
, % of the Moon is Illuminated

Today's Extremes

State Highs State Lows

Community

WunderPhotos

Upload Photos

1,823,488 photos uploaded!

WunderBlogs® & News

Nearby

Air Quality

  Air Quality AQ Index Pollutant
Not available.

Snow Depth

Station Depth Elevation

Earthquake Activity

City Distance Mag. Time & Date
Minimum magnitude displayed is 2.5.

Coastal Water Temperatures

Place Temperature

Stations

Nearby Weather Stations

Station Location Temp. Windchill Dew Point Humidity Wind Precip. Elev Updated Type